Time;durP1;ratioP1;P1;durP2;ratioP2;P2;SDS_P1;SDS_P2;PMS_P1;PMS_P2;Temp;Humidity;BMP_temperature;BMP_pressure;BME280_temperature;BME280_humidity;BME280_pressure;Samples;Min_cycle;Max_cycle;Signal;HPM_P1;HPM_P2
2023/02/10 00:01:37;;;;;;;17.20;11.53;;;-1.30;99.90;;;-141.84;70.01;18891.25;5048978;28;20228;-62
2023/02/10 00:04:06;;;;;;;18.70;11.60;;;-1.30;99.90;;;-141.84;69.83;18856.72;5048999;28;20233;-62
2023/02/10 00:06:34;;;;;;;21.40;11.87;;;-1.30;99.90;;;-141.84;70.01;18879.06;5049379;28;20235;-62
2023/02/10 00:09:05;;;;;;;17.27;12.03;;;-1.40;99.90;;;-141.84;70.87;18875.00;5049319;28;20215;-60
2023/02/10 00:14:20;;;;;;;18.43;12.47;;;-1.40;99.90;;;-141.84;71.19;18870.94;5049390;28;20681;-63
2023/02/10 00:16:51;;;;;;;18.97;11.43;;;-1.50;99.90;;;-141.84;71.15;18846.56;5048663;28;20727;-61
2023/02/10 00:19:20;;;;;;;17.17;11.30;;;-1.50;99.90;;;-141.84;70.17;18844.53;5048853;28;20251;-61
2023/02/10 00:21:48;;;;;;;19.60;11.83;;;-1.40;99.90;;;-141.84;69.91;18903.44;5049129;28;20237;-60
2023/02/10 00:24:17;;;;;;;17.53;11.53;;;-1.40;99.90;;;-141.84;69.87;18883.13;5048765;28;20243;-61
2023/02/10 00:26:45;;;;;;;16.47;11.10;;;-1.40;99.90;;;-141.84;69.92;18870.94;5049132;28;20667;-63
2023/02/10 00:29:14;;;;;;;16.93;10.90;;;-1.40;99.90;;;-141.84;69.67;18883.13;5049130;28;20225;-61
2023/02/10 00:31:44;;;;;;;19.00;11.70;;;-1.30;99.90;;;-141.84;69.61;18879.06;5048676;28;20232;-60
2023/02/10 00:34:14;;;;;;;18.30;11.77;;;-1.30;99.90;;;-141.84;68.53;18891.25;5048813;28;20239;-61
2023/02/10 00:36:43;;;;;;;16.97;10.93;;;-1.10;99.90;;;-141.84;67.65;18899.38;5048945;28;20640;-61
2023/02/10 00:39:14;;;;;;;16.17;11.67;;;-1.10;99.90;;;-141.84;67.87;18883.13;5048723;28;20239;-61
2023/02/10 00:41:43;;;;;;;17.13;12.27;;;-1.00;99.90;;;-141.84;67.68;18907.50;5049262;28;20221;-60
2023/02/10 00:44:11;;;;;;;19.23;12.07;;;-0.90;99.90;;;-141.84;67.64;18909.53;5049014;28;20235;-61
2023/02/10 00:46:39;;;;;;;16.87;11.13;;;-0.90;99.90;;;-141.84;66.67;18903.44;5048562;28;20239;-60
2023/02/10 00:49:11;;;;;;;16.87;11.47;;;-0.80;99.90;;;-141.84;66.22;18942.06;5052011;28;20269;-60
2023/02/10 00:51:39;;;;;;;17.13;11.50;;;-0.70;99.90;;;-141.84;66.66;18923.78;5052755;28;20220;-61
2023/02/10 00:54:08;;;;;;;18.90;11.60;;;-0.60;99.90;;;-141.84;66.35;18946.13;5052781;28;20227;-61
2023/02/10 00:56:36;;;;;;;14.17;10.33;;;-0.50;99.90;;;-141.84;66.08;18940.03;5053361;28;20225;-61
2023/02/10 00:59:04;;;;;;;16.77;11.17;;;-0.50;99.90;;;-141.84;65.30;18927.84;5052584;28;20230;-61
2023/02/10 01:01:32;;;;;;;19.00;12.20;;;-0.40;99.90;;;-141.84;65.47;18929.88;5052322;28;20244;-61
2023/02/10 01:04:00;;;;;;;19.00;12.23;;;-0.30;99.90;;;-141.84;64.91;18923.78;5052627;28;20229;-59
2023/02/10 01:06:30;;;;;;;18.63;12.73;;;-0.20;99.90;;;-141.84;64.38;18944.09;5052831;28;20238;-62
2023/02/10 01:08:58;;;;;;;16.43;10.67;;;-0.10;99.90;;;-141.84;64.49;18952.22;5052704;28;20230;-62
2023/02/10 01:11:26;;;;;;;18.40;11.77;;;-0.10;99.90;;;-141.84;64.57;18964.41;5053190;28;20205;-60
2023/02/10 01:13:54;;;;;;;17.17;11.60;;;-0.10;99.90;;;-141.84;64.29;18966.44;5052897;28;20223;-60
2023/02/10 01:16:23;;;;;;;16.77;11.17;;;-0.10;99.90;;;-141.84;64.06;18980.66;5052143;28;20255;-62
2023/02/10 01:18:51;;;;;;;15.50;10.40;;;0.00;99.90;;;-141.84;64.34;18921.75;5052421;28;20236;-59
2023/02/10 01:21:21;;;;;;;17.77;11.40;;;0.10;99.90;;;-141.84;64.49;18960.34;5052517;28;20224;-60
2023/02/10 01:23:51;;;;;;;18.37;11.13;;;0.00;99.90;;;-141.84;64.24;18935.97;5052050;28;20240;-60
2023/02/10 01:26:20;;;;;;;16.30;11.37;;;0.10;99.90;;;-141.84;63.78;18966.44;5052734;28;20206;-60
2023/02/10 01:28:48;;;;;;;15.73;11.57;;;0.20;99.90;;;-141.84;64.09;18954.25;5051897;28;20239;-60
2023/02/10 01:31:19;;;;;;;15.13;11.00;;;0.20;99.90;;;-141.84;63.59;18964.41;5052029;28;20740;-62
2023/02/10 01:33:52;;;;;;;17.50;12.20;;;0.20;99.90;;;-141.84;63.64;18935.97;5051939;28;20280;-61
2023/02/10 01:36:23;;;;;;;18.63;12.33;;;0.20;99.90;;;-141.84;62.85;18994.88;5052034;28;20468;-60
2023/02/10 01:38:53;;;;;;;16.73;11.73;;;0.30;99.90;;;-141.84;63.50;18976.59;5052307;28;20189;-62
2023/02/10 01:41:24;;;;;;;18.13;11.37;;;0.30;99.90;;;-141.84;63.40;19005.03;5052770;28;20212;-61
2023/02/10 01:44:03;;;;;;;17.77;12.10;;;0.30;99.90;;;-141.84;63.91;18964.41;5051593;28;20627;-61
2023/02/10 01:46:33;;;;;;;18.03;12.40;;;0.30;99.90;;;-141.84;63.42;18935.97;5051885;28;20228;-62
2023/02/10 01:49:06;;;;;;;17.03;11.37;;;0.40;99.90;;;-141.84;62.82;18994.88;5051744;28;20322;-62
2023/02/10 01:51:45;;;;;;;16.50;11.90;;;0.40;99.90;;;-141.84;62.69;18988.78;5051864;28;20624;-62
2023/02/10 01:54:20;;;;;;;20.40;12.40;;;0.50;99.90;;;-141.84;63.12;18962.38;5051732;28;20235;-60
2023/02/10 01:56:50;;;;;;;19.00;12.37;;;0.50;99.90;;;-141.84;62.39;18972.53;5051462;28;20197;-61
2023/02/10 01:59:21;;;;;;;18.13;11.37;;;0.50;99.90;;;-141.84;62.92;18988.78;5050975;28;20209;-62
2023/02/10 02:01:51;;;;;;;16.63;11.87;;;0.50;99.90;;;-141.84;63.00;18966.44;5051262;28;20232;-61
2023/02/10 02:04:19;;;;;;;16.50;11.23;;;0.50;99.90;;;-141.84;62.92;18962.38;5051442;28;20244;-61
2023/02/10 02:06:49;;;;;;;17.33;12.13;;;0.50;99.90;;;-141.84;62.77;18976.59;5051701;28;20593;-60
2023/02/10 02:09:18;;;;;;;18.50;12.00;;;0.50;99.90;;;-141.84;63.24;18996.91;5051355;28;20548;-61
2023/02/10 02:11:58;;;;;;;18.13;12.67;;;0.50;99.90;;;-141.84;63.13;18958.31;5051088;28;20668;-62
2023/02/10 02:14:37;;;;;;;19.67;11.97;;;0.50;99.90;;;-141.84;62.79;18998.94;5051748;28;20389;-61
2023/02/10 02:17:18;;;;;;;19.23;12.90;;;0.50;99.90;;;-141.84;63.34;18970.50;5051170;28;20241;-61
2023/02/10 02:20:43;;;;;;;19.90;11.57;;;0.60;99.90;;;-141.84;62.79;18968.47;5051105;28;20320;-61
2023/02/10 02:23:44;;;;;;;20.53;13.50;;;0.70;99.90;;;-141.84;63.03;18966.44;5021346;28;20231;-61
2023/02/10 02:26:48;;;;;;;17.13;11.70;;;0.60;99.90;;;-141.84;63.38;18980.66;5032280;28;20730;-60
2023/02/10 02:29:48;;;;;;;19.60;12.87;;;0.60;99.90;;;-141.84;63.62;19013.16;5051122;28;20228;-61
2023/02/10 02:32:19;;;;;;;17.93;11.90;;;0.60;99.90;;;-141.84;64.22;18984.72;5051379;28;20209;-61
2023/02/10 02:34:56;;;;;;;19.53;13.43;;;0.60;99.90;;;-141.84;64.55;18960.34;5050887;28;20634;-61
2023/02/10 02:37:30;;;;;;;18.13;12.60;;;0.60;99.90;;;-141.84;64.84;18970.50;5051127;28;20231;-62
2023/02/10 02:39:58;;;;;;;20.47;13.33;;;0.60;99.90;;;-141.84;65.32;18996.91;5050693;28;20225;-62
2023/02/10 02:42:29;;;;;;;18.87;13.50;;;0.60;99.90;;;-141.84;65.70;19011.13;5050893;28;20314;-62
2023/02/10 02:45:02;;;;;;;18.00;12.33;;;0.60;99.90;;;-141.84;65.91;18996.91;5050782;28;20182;-63
2023/02/10 02:47:56;;;;;;;23.97;13.67;;;0.50;99.90;;;-141.84;65.83;18960.34;5051534;28;20186;-61
2023/02/10 02:50:34;;;;;;;21.03;13.70;;;0.50;99.90;;;-141.84;65.31;18982.69;5050788;28;20228;-62
2023/02/10 02:53:18;;;;;;;21.53;13.17;;;0.60;99.90;;;-141.84;65.62;18978.63;5050849;28;20230;-61
2023/02/10 02:56:08;;;;;;;19.87;13.57;;;0.60;99.90;;;-141.84;65.44;18968.47;5050230;28;20254;-61
2023/02/10 02:58:51;;;;;;;19.50;12.70;;;0.60;99.90;;;-141.84;64.78;18982.69;5050510;28;20243;-61
2023/02/10 03:01:29;;;;;;;18.37;12.77;;;0.60;99.90;;;-141.84;65.58;18980.66;5050285;28;20244;-60
2023/02/10 03:04:00;;;;;;;20.90;13.23;;;0.60;99.90;;;-141.84;66.02;18962.38;5050264;28;20258;-61
2023/02/10 03:06:28;;;;;;;20.10;14.10;;;0.60;99.90;;;-141.84;65.74;18972.53;5050550;28;20259;-63
2023/02/10 03:08:56;;;;;;;20.10;13.33;;;0.60;99.90;;;-141.84;65.83;18948.16;5050472;28;20205;-61
2023/02/10 03:11:25;;;;;;;22.53;13.50;;;0.60;99.90;;;-141.84;65.93;18972.53;5050438;28;20203;-61
2023/02/10 03:13:53;;;;;;;17.50;12.87;;;0.70;99.90;;;-141.84;65.58;18990.81;5050216;28;20229;-62
2023/02/10 03:16:21;;;;;;;23.23;14.03;;;0.70;99.90;;;-141.84;64.71;18984.72;5049957;28;20613;-61
2023/02/10 03:18:49;;;;;;;21.37;14.60;;;0.70;99.90;;;-141.84;65.32;18982.69;5050104;28;20229;-62
2023/02/10 03:21:19;;;;;;;21.00;13.50;;;0.70;99.90;;;-141.84;65.26;18968.47;5049759;28;20715;-60
2023/02/10 03:23:47;;;;;;;20.40;13.57;;;0.80;99.90;;;-141.84;64.96;18968.47;5050039;28;20222;-62
2023/02/10 03:26:15;;;;;;;21.30;15.00;;;0.80;99.90;;;-141.84;65.01;18976.59;5050050;28;20579;-60
2023/02/10 03:28:43;;;;;;;22.60;15.00;;;0.80;99.90;;;-141.84;64.50;18988.78;5049904;28;20232;-61
2023/02/10 03:31:12;;;;;;;25.27;14.73;;;0.80;99.90;;;-141.84;64.85;18974.56;5049650;28;20600;-62
2023/02/10 03:33:40;;;;;;;24.13;15.93;;;0.80;99.90;;;-141.84;65.25;18988.78;5049962;28;20233;-63
2023/02/10 03:36:09;;;;;;;21.20;14.77;;;0.80;99.90;;;-141.84;65.33;18964.41;5049786;28;20225;-61
2023/02/10 03:38:38;;;;;;;24.53;15.17;;;0.70;99.90;;;-141.84;64.83;18958.31;5050727;28;20205;-61
2023/02/10 03:41:07;;;;;;;22.70;14.53;;;0.70;99.90;;;-141.84;65.11;18984.72;5049379;28;20717;-62
2023/02/10 03:43:35;;;;;;;24.70;15.17;;;0.80;99.90;;;-141.84;65.23;18976.59;5049567;28;20232;-60
2023/02/10 03:46:05;;;;;;;20.43;14.30;;;0.80;99.90;;;-141.84;65.39;19003.00;5049406;28;20222;-62
2023/02/10 03:48:33;;;;;;;20.60;14.70;;;0.80;99.90;;;-141.84;65.15;18980.66;5049575;28;20318;-62
2023/02/10 03:51:06;;;;;;;23.07;15.53;;;0.80;99.90;;;-141.84;64.51;19000.97;5049342;28;20214;-61
2023/02/10 03:53:35;;;;;;;21.73;14.90;;;0.80;99.90;;;-141.84;65.00;18976.59;5050344;28;20185;-60
2023/02/10 03:56:06;;;;;;;23.77;15.47;;;0.80;99.90;;;-141.84;65.18;18968.47;5049142;28;20320;-62
2023/02/10 03:58:34;;;;;;;23.77;15.30;;;0.80;99.90;;;-141.84;65.13;19005.03;5049472;28;20225;-61
2023/02/10 04:01:10;;;;;;;23.20;15.10;;;0.90;99.90;;;-141.84;64.60;18998.94;5049312;28;20235;-61
2023/02/10 04:03:39;;;;;;;23.80;16.07;;;0.90;99.90;;;-141.84;65.05;18964.41;5049324;28;20713;-61
2023/02/10 04:06:08;;;;;;;22.17;14.73;;;0.90;99.90;;;-141.84;64.83;18980.66;5049173;28;20308;-61
2023/02/10 04:08:38;;;;;;;24.57;16.07;;;0.90;99.90;;;-141.84;65.02;19015.19;5014453;28;20586;-61
2023/02/10 04:11:09;;;;;;;24.33;14.87;;;0.90;99.90;;;-141.84;65.32;18962.38;5049033;28;20256;-61
2023/02/10 04:13:37;;;;;;;22.57;15.20;;;0.90;99.90;;;-141.84;65.46;18990.81;5049201;28;20797;-61
2023/02/10 04:16:09;;;;;;;26.27;16.57;;;0.80;99.90;;;-141.84;65.16;19007.06;5049132;28;20251;-60
2023/02/10 04:18:39;;;;;;;23.97;15.60;;;0.90;99.90;;;-141.84;65.29;18988.78;5049209;28;20229;-61
2023/02/10 04:21:10;;;;;;;22.93;15.87;;;0.90;99.90;;;-141.84;65.78;18994.88;5049354;28;20245;-61
2023/02/10 04:23:38;;;;;;;22.43;15.10;;;0.90;99.90;;;-141.84;65.54;19003.00;5048985;28;20209;-61
2023/02/10 04:26:08;;;;;;;23.77;16.63;;;0.90;99.90;;;-141.84;65.65;19009.09;5048742;28;20228;-63
2023/02/10 04:28:36;;;;;;;24.47;16.73;;;0.80;99.90;;;-141.84;65.93;18964.41;5049428;28;20248;-62
2023/02/10 04:31:05;;;;;;;22.07;15.03;;;0.80;99.90;;;-141.84;65.60;18988.78;5049483;28;20229;-60
2023/02/10 04:33:33;;;;;;;24.57;15.77;;;0.90;99.90;;;-141.84;66.42;18974.56;5049129;28;20379;-62
2023/02/10 04:36:02;;;;;;;24.33;16.73;;;0.90;99.90;;;-141.84;66.39;18954.25;5049161;28;20205;-61
2023/02/10 04:38:31;;;;;;;29.03;17.50;;;0.90;99.90;;;-141.84;65.75;18980.66;5049422;28;20451;-60
2023/02/10 04:40:59;;;;;;;23.30;16.00;;;0.90;99.90;;;-141.84;65.55;19015.19;5048813;28;20233;-62
2023/02/10 04:43:28;;;;;;;23.53;16.33;;;0.90;99.90;;;-141.84;66.47;18988.78;5048741;28;20232;-61
2023/02/10 04:45:57;;;;;;;26.60;17.70;;;0.90;99.90;;;-141.84;66.92;18938.00;5048501;28;20716;-60
2023/02/10 04:48:25;;;;;;;28.60;17.37;;;0.80;99.90;;;-141.84;66.71;18962.38;5048647;28;20228;-61
2023/02/10 04:50:53;;;;;;;26.77;17.43;;;0.80;99.90;;;-141.84;67.04;18982.69;5048859;28;20204;-60
2023/02/10 04:53:21;;;;;;;28.33;17.90;;;0.80;99.90;;;-141.84;67.71;18950.19;5049338;28;20299;-61
2023/02/10 04:55:50;;;;;;;27.20;18.73;;;0.80;99.90;;;-141.84;67.76;18952.22;5048442;28;20228;-61
2023/02/10 04:58:19;;;;;;;24.30;18.00;;;0.80;99.90;;;-141.84;67.59;18972.53;5048546;28;20222;-61
2023/02/10 05:00:49;;;;;;;23.13;15.97;;;0.70;99.90;;;-141.84;68.06;18976.59;5048813;28;20233;-61
2023/02/10 05:03:17;;;;;;;27.37;19.00;;;0.70;99.90;;;-141.84;68.38;18974.56;5048889;28;20236;-62
2023/02/10 05:05:45;;;;;;;28.03;18.60;;;0.70;99.90;;;-141.84;68.39;18962.38;5048614;28;20225;-62
2023/02/10 05:08:14;;;;;;;27.90;17.97;;;0.70;99.90;;;-141.84;68.36;18974.56;5049005;28;20203;-62
2023/02/10 05:10:42;;;;;;;27.27;18.63;;;0.80;99.90;;;-141.84;68.54;18976.59;5048444;28;20766;-60
2023/02/10 05:13:11;;;;;;;25.33;17.83;;;0.80;99.90;;;-141.84;68.87;18946.13;5048591;28;20232;-61
2023/02/10 05:15:39;;;;;;;28.63;18.10;;;0.70;99.90;;;-141.84;68.89;18964.41;5048460;28;20604;-61
2023/02/10 05:18:08;;;;;;;27.10;19.20;;;0.80;99.90;;;-141.84;68.76;19003.00;5048517;28;20228;-61
2023/02/10 05:20:37;;;;;;;29.53;19.17;;;0.80;99.90;;;-141.84;68.76;18958.31;5049109;28;20209;-62
2023/02/10 05:23:05;;;;;;;30.47;19.50;;;0.80;99.90;;;-141.84;69.01;18976.59;5048320;28;20233;-61
2023/02/10 05:25:33;;;;;;;28.47;18.93;;;0.80;99.90;;;-141.84;69.14;18972.53;5048194;28;20244;-61
2023/02/10 05:28:02;;;;;;;27.57;18.23;;;0.90;99.90;;;-141.84;69.48;18954.25;5048465;28;20245;-62
2023/02/10 05:30:30;;;;;;;30.17;19.50;;;0.90;99.90;;;-141.84;69.55;18966.44;5048201;28;20260;-61
2023/02/10 05:32:58;;;;;;;30.37;19.53;;;0.90;99.90;;;-141.84;69.37;18964.41;5048571;28;20205;-62
2023/02/10 05:35:28;;;;;;;30.70;19.40;;;0.90;99.90;;;-141.84;69.80;18960.34;5052621;28;20375;-62
2023/02/10 05:37:56;;;;;;;31.43;19.63;;;0.90;99.90;;;-141.84;70.01;18978.63;5051772;28;20229;-61
2023/02/10 05:40:24;;;;;;;31.23;21.50;;;0.90;99.90;;;-141.84;69.89;18986.75;5051795;28;20228;-60
2023/02/10 05:42:52;;;;;;;29.00;20.20;;;0.90;99.90;;;-141.84;69.95;18982.69;5051808;28;20247;-61
2023/02/10 05:45:20;;;;;;;29.90;20.73;;;0.90;99.90;;;-141.84;70.34;18954.25;5051524;28;20748;-61
2023/02/10 05:47:50;;;;;;;30.53;20.43;;;0.80;99.90;;;-141.84;70.51;18960.34;5051725;28;20204;-62
2023/02/10 05:50:19;;;;;;;32.23;21.03;;;0.90;99.90;;;-141.84;70.55;18970.50;5052673;28;20197;-62
2023/02/10 05:52:48;;;;;;;32.63;21.17;;;0.90;99.90;;;-141.84;70.56;18960.34;5051932;28;20236;-61
2023/02/10 05:55:16;;;;;;;31.57;20.63;;;1.00;99.90;;;-141.84;70.01;18946.13;5051657;28;20320;-61
2023/02/10 05:57:44;;;;;;;34.10;22.03;;;0.90;99.90;;;-141.84;70.28;18986.75;5051495;28;20228;-62
2023/02/10 06:00:15;;;;;;;31.00;20.57;;;0.90;99.90;;;-141.84;70.72;18952.22;5051641;28;20283;-62
2023/02/10 06:02:43;;;;;;;31.67;21.43;;;0.90;99.90;;;-141.84;70.90;18970.50;5051631;28;20205;-61
2023/02/10 06:05:11;;;;;;;32.57;21.80;;;1.00;99.90;;;-141.84;71.18;18956.28;5051347;28;20225;-61
2023/02/10 06:07:39;;;;;;;32.60;21.77;;;1.00;99.90;;;-141.84;71.00;18978.63;5051381;28;20757;-61
2023/02/10 06:10:09;;;;;;;31.90;21.73;;;1.00;99.90;;;-141.84;71.08;18974.56;5051364;28;20229;-62
2023/02/10 06:12:37;;;;;;;33.43;21.33;;;1.00;99.90;;;-141.84;71.27;18968.47;5051387;28;20243;-61
2023/02/10 06:15:07;;;;;;;35.23;23.20;;;1.00;99.90;;;-141.84;71.44;18976.59;5050955;28;20234;-62
2023/02/10 06:17:35;;;;;;;35.00;23.40;;;1.00;99.90;;;-141.84;71.33;18966.44;5051604;28;20668;-61
2023/02/10 06:20:03;;;;;;;34.40;23.70;;;1.00;99.90;;;-141.84;71.37;18940.03;5051075;28;20740;-60
2023/02/10 06:22:31;;;;;;;38.33;24.63;;;1.00;99.90;;;-141.84;71.42;18948.16;5051185;28;20235;-61
2023/02/10 06:24:59;;;;;;;39.80;23.43;;;1.10;99.90;;;-141.84;71.43;18984.72;5050932;28;20233;-61
2023/02/10 06:27:29;;;;;;;36.13;23.40;;;1.10;99.90;;;-141.84;71.36;18970.50;5050948;28;20312;-61
2023/02/10 06:29:57;;;;;;;35.70;23.57;;;1.10;99.90;;;-141.84;71.52;18978.63;5050643;28;20198;-62
2023/02/10 06:32:25;;;;;;;35.80;23.57;;;1.10;99.90;;;-141.84;71.57;18982.69;5051640;28;20201;-61
2023/02/10 06:34:53;;;;;;;37.17;23.17;;;1.10;99.90;;;-141.84;71.82;18962.38;5050754;28;20300;-61
2023/02/10 06:37:21;;;;;;;34.20;22.30;;;1.20;99.90;;;-141.84;71.71;18972.53;5050840;28;20225;-62
2023/02/10 06:39:49;;;;;;;36.30;23.77;;;1.10;99.90;;;-141.84;71.95;18966.44;5050712;28;20230;-61
2023/02/10 06:42:18;;;;;;;37.53;23.23;;;1.10;99.90;;;-141.84;71.73;18976.59;5050491;28;20230;-62
2023/02/10 06:44:47;;;;;;;34.37;22.80;;;1.20;99.90;;;-141.84;71.90;18982.69;5050209;28;20228;-60
2023/02/10 06:47:15;;;;;;;33.93;21.63;;;1.10;99.90;;;-141.84;71.99;18970.50;5051153;28;20206;-62
2023/02/10 06:49:43;;;;;;;35.60;23.80;;;1.10;99.90;;;-141.84;72.05;18982.69;5050681;28;20245;-62
2023/02/10 06:52:11;;;;;;;35.97;23.03;;;1.10;99.90;;;-141.84;72.30;18956.28;5050826;28;20602;-62
2023/02/10 06:54:44;;;;;;;31.90;21.17;;;1.20;99.90;;;-141.84;72.12;18968.47;5050368;28;20229;-62
2023/02/10 06:57:12;;;;;;;34.20;22.73;;;1.30;99.90;;;-141.84;72.18;18948.16;5050651;28;20236;-64
2023/02/10 06:59:40;;;;;;;38.27;22.50;;;1.30;99.90;;;-141.84;72.13;18978.63;5051062;28;20205;-63
2023/02/10 07:02:12;;;;;;;39.23;25.37;;;1.30;99.90;;;-141.84;72.16;18960.34;5050464;28;20236;-60
2023/02/10 07:04:41;;;;;;;36.67;24.50;;;1.30;99.90;;;-141.84;72.27;18970.50;5050389;28;20713;-62
2023/02/10 07:07:09;;;;;;;38.13;23.67;;;1.40;99.90;;;-141.84;72.28;18946.13;5050541;28;20236;-61
2023/02/10 07:09:37;;;;;;;37.60;23.63;;;1.40;99.90;;;-141.84;72.05;18964.41;5050032;28;20233;-62
2023/02/10 07:12:06;;;;;;;38.90;24.17;;;1.40;99.90;;;-141.84;72.04;18956.28;5049953;28;21257;-62
2023/02/10 07:14:34;;;;;;;39.90;24.37;;;1.40;99.90;;;-141.84;72.14;19013.16;5050548;28;20210;-62
2023/02/10 07:17:03;;;;;;;34.77;22.97;;;1.50;99.90;;;-141.84;72.22;18986.75;5049996;28;20244;-61
2023/02/10 07:19:32;;;;;;;39.30;24.90;;;1.50;99.90;;;-141.84;72.14;18982.69;5050028;28;20230;-61
2023/02/10 07:22:04;;;;;;;38.20;24.03;;;1.50;99.90;;;-141.84;71.99;18968.47;5050158;28;20755;-63
2023/02/10 07:24:32;;;;;;;42.10;25.00;;;1.40;99.90;;;-141.84;72.01;18988.78;5049978;28;20225;-62
2023/02/10 07:27:01;;;;;;;38.17;23.40;;;1.50;99.90;;;-141.84;72.08;18972.53;5049977;28;20240;-61
2023/02/10 07:29:29;;;;;;;40.03;25.13;;;1.50;99.90;;;-141.84;71.66;18978.63;5050245;28;20657;-61
2023/02/10 07:31:58;;;;;;;39.87;24.07;;;1.60;99.90;;;-141.84;71.95;19013.16;5049758;28;20217;-61
2023/02/10 07:34:30;;;;;;;40.87;25.00;;;1.60;99.90;;;-141.84;72.08;19013.16;5049901;28;20545;-62
2023/02/10 07:36:59;;;;;;;38.23;23.83;;;1.60;99.90;;;-141.84;72.08;18988.78;5049778;28;20221;-62
2023/02/10 07:39:28;;;;;;;38.20;24.17;;;1.70;99.90;;;-141.84;72.15;18978.63;5049679;28;20298;-61
2023/02/10 07:41:56;;;;;;;43.93;26.97;;;1.70;99.90;;;-141.84;72.48;18980.66;5049438;28;20212;-62
2023/02/10 07:44:24;;;;;;;38.57;24.40;;;1.70;99.90;;;-141.84;72.37;19009.09;5049919;28;20201;-62
2023/02/10 07:46:53;;;;;;;38.90;25.00;;;1.80;99.90;;;-141.84;72.01;19019.28;5049383;28;20222;-62
2023/02/10 07:49:21;;;;;;;40.50;25.07;;;1.80;99.90;;;-141.84;71.84;19019.28;5049400;28;20225;-63
2023/02/10 07:51:49;;;;;;;41.87;25.00;;;1.90;99.90;;;-141.84;71.74;19005.03;5049652;28;20222;-62
2023/02/10 07:54:19;;;;;;;41.53;25.13;;;1.90;99.90;;;-141.84;71.64;19045.69;5049471;28;20242;-62
2023/02/10 07:56:47;;;;;;;39.23;25.13;;;2.30;99.90;;;-141.84;71.49;19011.13;5048187;28;20650;-61
2023/02/10 07:59:15;;;;;;;46.73;27.00;;;2.00;99.90;;;-141.84;71.35;19021.31;5049810;28;20706;-62
2023/02/10 08:01:45;;;;;;;45.17;25.97;;;2.00;99.90;;;-141.84;71.50;19045.69;5049384;28;20239;-61
2023/02/10 08:04:14;;;;;;;41.80;25.07;;;2.00;99.90;;;-141.84;71.76;19037.56;5049759;28;20308;-62
2023/02/10 08:06:42;;;;;;;39.70;25.37;;;2.00;99.90;;;-141.84;71.64;19017.25;5049177;28;20609;-64
2023/02/10 08:09:11;;;;;;;45.47;25.77;;;2.10;99.90;;;-141.84;71.86;19005.03;5049403;28;20233;-61
2023/02/10 08:11:40;;;;;;;41.10;25.17;;;2.10;99.90;;;-141.84;71.80;19009.09;5049793;28;20581;-61
2023/02/10 08:14:08;;;;;;;50.17;28.97;;;2.10;99.90;;;-141.84;71.99;18986.75;5049037;28;20245;-61
2023/02/10 08:16:37;;;;;;;43.10;26.70;;;2.20;99.90;;;-141.84;71.86;19013.16;5048709;28;20241;-60
2023/02/10 08:19:05;;;;;;;49.40;26.20;;;2.20;99.90;;;-141.84;71.68;19049.75;5049144;28;20727;-61
2023/02/10 08:21:33;;;;;;;43.67;26.23;;;2.20;99.90;;;-141.84;71.76;19041.63;5049193;28;20228;-61
2023/02/10 08:24:01;;;;;;;44.87;26.03;;;2.20;99.90;;;-141.84;71.53;19003.00;5049340;28;20205;-62
2023/02/10 08:26:30;;;;;;;44.97;26.57;;;2.20;99.90;;;-141.84;71.69;19005.03;5049390;28;20620;-62
2023/02/10 08:28:59;;;;;;;42.37;25.83;;;2.20;99.90;;;-141.84;71.26;19043.66;5048822;28;20230;-62
2023/02/10 08:31:28;;;;;;;40.63;24.73;;;2.30;99.90;;;-141.84;71.50;19035.53;5048710;28;20609;-62
2023/02/10 08:33:57;;;;;;;44.73;26.00;;;2.30;99.90;;;-141.84;71.56;19051.78;5049058;28;20294;-61
2023/02/10 08:36:25;;;;;;;43.37;25.57;;;2.40;99.90;;;-141.84;71.88;19025.38;5048735;28;20601;-63
2023/02/10 08:38:53;;;;;;;43.07;25.33;;;2.30;99.90;;;-141.84;71.43;19029.44;5048943;28;20437;-62
2023/02/10 08:41:22;;;;;;;41.23;25.50;;;2.40;99.90;;;-141.84;71.12;19025.38;5049196;28;20209;-62
2023/02/10 08:43:50;;;;;;;45.17;25.57;;;2.50;99.90;;;-141.84;70.73;19057.88;5048536;28;20221;-62
2023/02/10 08:46:20;;;;;;;39.57;23.33;;;2.60;99.90;;;-141.84;70.95;19068.03;5048562;28;20273;-62
2023/02/10 08:48:48;;;;;;;41.33;23.53;;;2.70;99.90;;;-141.84;70.29;19035.53;5048727;28;20229;-62
2023/02/10 08:51:17;;;;;;;44.50;24.93;;;2.70;99.90;;;-141.84;70.50;19053.81;5048635;28;20237;-61
2023/02/10 08:53:45;;;;;;;43.90;25.00;;;2.70;99.90;;;-141.84;70.41;19035.53;5049075;28;20247;-61
2023/02/10 08:56:17;;;;;;;44.87;24.67;;;2.80;99.90;;;-141.84;70.27;19039.59;5036400;28;20606;-63
2023/02/10 08:58:45;;;;;;;37.83;23.53;;;2.80;99.90;;;-141.84;69.67;19072.09;5048599;28;20227;-61
2023/02/10 09:01:17;;;;;;;43.23;25.47;;;2.90;99.90;;;-141.84;69.12;19082.25;5048459;28;20227;-61
2023/02/10 09:03:48;;;;;;;44.27;25.13;;;3.10;99.90;;;-141.84;69.15;19043.66;5048488;28;20302;-62
2023/02/10 09:06:18;;;;;;;45.03;24.13;;;3.10;99.90;;;-141.84;68.43;19086.31;5048525;28;20235;-61
2023/02/10 09:08:48;;;;;;;40.37;24.93;;;3.20;99.90;;;-141.84;67.87;19094.44;5049978;28;20190;-63
2023/02/10 09:11:18;;;;;;;41.07;25.27;;;3.30;99.90;;;-141.84;68.76;19072.09;5053006;28;20233;-61
2023/02/10 09:13:46;;;;;;;41.27;24.63;;;3.10;99.90;;;-141.84;69.18;19090.38;5052728;28;20224;-62
2023/02/10 09:16:14;;;;;;;41.27;24.67;;;3.10;99.90;;;-141.84;69.08;19100.53;5052272;28;20489;-61
2023/02/10 09:18:43;;;;;;;39.10;24.20;;;3.20;99.90;;;-141.84;69.11;19082.25;5052294;28;20229;-62
2023/02/10 09:21:12;;;;;;;41.63;23.73;;;3.10;99.90;;;-141.84;69.59;19045.69;5052555;28;20223;-61
2023/02/10 09:23:40;;;;;;;38.30;23.67;;;3.20;99.90;;;-141.84;68.38;19106.66;5052662;28;20208;-62
2023/02/10 09:26:10;;;;;;;40.70;23.30;;;3.20;99.90;;;-141.84;68.39;19078.19;5051933;28;20225;-61
2023/02/10 09:28:38;;;;;;;37.13;22.97;;;3.30;99.90;;;-141.84;67.68;19100.53;5051998;28;20240;-62
2023/02/10 09:31:08;;;;;;;38.37;23.47;;;3.40;99.90;;;-141.84;67.84;19092.41;5051936;28;20723;-61
2023/02/10 09:33:36;;;;;;;38.23;23.37;;;3.40;99.90;;;-141.84;68.02;19096.47;5051955;28;20288;-61
2023/02/10 09:36:07;;;;;;;40.33;23.67;;;3.30;99.90;;;-141.84;67.48;19104.59;5052347;28;20208;-62
2023/02/10 09:38:38;;;;;;;38.13;22.70;;;3.30;99.90;;;-141.84;68.00;19112.75;5052646;28;20196;-62
2023/02/10 09:41:26;;;;;;;41.20;23.40;;;3.30;99.90;;;-141.84;67.73;19120.88;5051872;28;20252;-61
2023/02/10 09:44:12;;;;;;;37.97;23.23;;;3.30;99.90;;;-141.84;67.68;19088.34;5051753;28;20623;-61
2023/02/10 09:47:06;;;;;;;37.20;22.77;;;3.30;99.90;;;-141.84;67.82;19094.44;5051756;28;20733;-62
2023/02/10 09:49:54;;;;;;;35.40;22.77;;;3.30;99.90;;;-141.84;67.03;19116.81;5051513;28;20248;-61
2023/02/10 09:52:39;;;;;;;38.90;23.37;;;3.50;99.90;;;-141.84;66.74;19098.50;5051623;28;20217;-62
2023/02/10 09:55:16;;;;;;;37.40;22.73;;;3.60;99.90;;;-141.84;66.99;19114.78;5051667;28;20598;-63
2023/02/10 09:57:52;;;;;;;36.87;22.93;;;3.60;99.90;;;-141.84;66.33;19145.25;5051745;28;20655;-61
2023/02/10 10:00:29;;;;;;;38.00;23.03;;;3.60;99.90;;;-141.84;66.19;19100.53;5051593;28;20231;-62
2023/02/10 10:03:02;;;;;;;38.20;22.40;;;3.70;99.90;;;-141.84;66.26;19118.84;5051576;28;20192;-62
2023/02/10 10:05:52;;;;;;;37.70;24.13;;;3.80;99.90;;;-141.84;65.91;19141.19;5052147;28;20241;-62
2023/02/10 10:08:30;;;;;;;40.63;23.97;;;3.80;99.90;;;-141.84;65.51;19165.56;5050826;28;20235;-62
2023/02/10 10:11:06;;;;;;;39.77;23.77;;;3.90;99.90;;;-141.84;65.78;19145.25;5051139;28;20254;-62
2023/02/10 10:13:36;;;;;;;37.70;22.73;;;3.90;99.90;;;-141.84;64.55;19177.75;5051279;28;20235;-63
2023/02/10 10:16:23;;;;;;;42.97;23.90;;;4.20;99.90;;;-141.84;63.41;19244.81;5050963;28;20668;-63